createdAt,value
2022-09-03T11:06:09.985Z,52.07
2022-09-03T11:11:26.601Z,52.21
2022-09-03T11:16:29.123Z,52.52
2022-09-03T11:21:31.654Z,53.25
2022-09-03T11:26:35.306Z,53.84
2022-09-03T11:32:13.058Z,54.09
2022-09-03T11:37:19.716Z,54.15
2022-09-03T11:42:28.033Z,54.30
2022-09-03T11:47:40.779Z,54.75
2022-09-03T11:52:42.511Z,55.01
2022-09-03T11:57:44.297Z,55.30
2022-09-03T12:02:48.887Z,55.79
2022-09-03T12:07:59.628Z,56.04
2022-09-03T12:13:05.830Z,56.26
2022-09-03T12:18:22.711Z,56.79
2022-09-03T12:23:30.074Z,56.61
2022-09-03T12:28:35.918Z,55.92
2022-09-03T12:33:40.956Z,56.11
2022-09-03T12:39:18.548Z,56.20
2022-09-03T12:44:53.903Z,55.88
2022-09-03T12:49:58.537Z,55.45
2022-09-03T12:55:04.477Z,55.69
2022-09-03T13:00:10.661Z,54.77
2022-09-03T13:05:15.207Z,54.51
2022-09-03T13:10:24.036Z,54.40
2022-09-03T13:15:26.132Z,54.06
2022-09-03T13:20:29.442Z,53.77
2022-09-03T13:25:41.291Z,54.06
2022-09-03T13:30:52.684Z,54.03
2022-09-03T13:36:06.110Z,53.94
2022-09-03T13:41:10.854Z,53.75
2022-09-03T13:46:22.263Z,54.05
2022-09-03T13:51:27.898Z,53.98
2022-09-03T13:56:36.601Z,52.53
2022-09-03T14:01:44.621Z,52.49
2022-09-03T14:07:03.320Z,52.73
2022-09-03T14:12:17.338Z,53.31
2022-09-03T14:17:26.837Z,52.64
2022-09-03T14:22:31.596Z,51.82
2022-09-03T14:27:35.016Z,52.32
2022-09-03T14:32:59.577Z,52.04
2022-09-03T14:38:07.375Z,52.45
2022-09-03T14:43:30.965Z,53.34
2022-09-03T14:48:41.669Z,53.91
2022-09-03T14:54:05.215Z,53.93
2022-09-03T14:59:20.496Z,53.24
2022-09-03T15:04:22.113Z,53.71
2022-09-03T15:09:40.294Z,53.98
2022-09-03T15:14:58.651Z,53.91
2022-09-03T15:20:24.211Z,53.45
2022-09-03T15:25:39.525Z,53.52
2022-09-03T15:30:44.286Z,54.17
2022-09-03T15:35:56.748Z,54.60
2022-09-03T15:41:02.684Z,55.18
2022-09-03T15:46:10.913Z,56.02
2022-09-03T15:51:15.667Z,56.26
2022-09-03T15:56:39.327Z,56.39
2022-09-03T16:01:41.398Z,56.84
2022-09-03T16:06:49.531Z,56.71
2022-09-03T16:12:09.900Z,57.30
2022-09-03T16:17:34.950Z,57.65
2022-09-03T16:22:49.387Z,57.37
2022-09-03T16:28:15.146Z,57.64
2022-09-03T16:33:28.394Z,57.38
2022-09-03T16:39:02.220Z,57.18
2022-09-03T16:44:38.774Z,56.59
2022-09-03T16:49:51.556Z,57.16
2022-09-03T16:54:55.950Z,57.82
2022-09-03T17:00:02.996Z,58.03
2022-09-03T17:05:23.747Z,58.78
2022-09-03T17:10:28.639Z,60.06
2022-09-03T17:15:30.403Z,61.09
2022-09-03T17:20:35.097Z,61.44
2022-09-03T17:25:38.698Z,62.76
2022-09-03T17:30:56.899Z,63.78
2022-09-03T17:36:06.396Z,63.79
2022-09-03T17:41:29.089Z,63.63
2022-09-03T17:46:49.669Z,63.91
2022-09-03T17:52:14.777Z,64.92
2022-09-03T17:57:21.973Z,65.89
2022-09-03T18:02:39.240Z,66.96
2022-09-03T18:07:47.433Z,67.68
2022-09-03T18:13:14.273Z,68.72
2022-09-03T18:18:27.651Z,69.70
2022-09-03T18:23:58.397Z,70.80
2022-09-03T18:29:18.609Z,71.56
2022-09-03T18:34:40.455Z,72.40
2022-09-03T18:40:03.164Z,72.77
2022-09-03T18:45:48.353Z,72.97
2022-09-03T18:51:16.727Z,73.31
2022-09-03T18:56:47.989Z,73.85
2022-09-03T19:02:08.332Z,74.42
2022-09-03T19:07:39.729Z,74.68
2022-09-03T19:13:23.619Z,74.97
2022-09-03T19:19:03.461Z,75.25
2022-09-03T19:24:24.057Z,75.46
2022-09-03T19:30:03.638Z,75.83
2022-09-03T19:35:28.972Z,76.21
2022-09-03T19:41:08.178Z,76.59
2022-09-03T19:46:32.001Z,77.01
2022-09-03T19:52:04.206Z,77.25
2022-09-03T19:57:24.764Z,77.62
2022-09-03T20:02:59.134Z,77.73
2022-09-03T20:08:20.295Z,77.58
2022-09-03T20:14:02.216Z,77.78
2022-09-03T20:19:10.941Z,77.83
2022-09-03T20:24:12.579Z,78.31
2022-09-03T20:29:17.445Z,78.34
2022-09-03T20:34:26.121Z,78.53
2022-09-03T20:39:33.905Z,78.87
2022-09-03T20:44:50.692Z,79.27
2022-09-03T20:50:10.999Z,79.35
2022-09-03T20:55:17.636Z,79.35
2022-09-03T21:00:21.232Z,79.03
2022-09-03T21:05:27.218Z,78.92
2022-09-03T21:10:34.281Z,78.73
2022-09-03T21:15:35.919Z,78.43
2022-09-03T21:20:40.869Z,78.05
2022-09-03T21:25:49.917Z,77.64
2022-09-03T21:30:58.481Z,77.26
2022-09-03T21:36:25.224Z,76.99
2022-09-03T21:41:49.477Z,77.00
2022-09-03T21:46:57.053Z,76.96
2022-09-03T21:52:02.039Z,76.65
2022-09-03T21:57:22.586Z,76.63
2022-09-03T22:02:28.657Z,76.45
2022-09-03T22:07:33.413Z,76.41
2022-09-03T22:12:35.053Z,76.46
2022-09-03T22:17:46.197Z,76.58
2022-09-03T22:22:56.639Z,76.46
2022-09-03T22:28:13.073Z,76.27
2022-09-03T22:33:47.460Z,76.28
2022-09-03T22:39:08.927Z,75.99
2022-09-03T22:44:30.862Z,76.05
2022-09-03T22:49:45.533Z,75.95
2022-09-03T22:54:54.621Z,76.35
2022-09-03T23:00:06.475Z,76.69
2022-09-03T23:05:08.663Z,76.56
2022-09-03T23:10:13.409Z,76.78
2022-09-03T23:15:30.311Z,77.28
2022-09-03T23:20:34.217Z,78.08
2022-09-03T23:25:37.781Z,78.70
2022-09-03T23:30:41.779Z,79.43
2022-09-03T23:35:53.576Z,79.93
2022-09-03T23:40:58.067Z,80.62
2022-09-03T23:46:14.482Z,80.79
2022-09-03T23:51:22.797Z,80.99
2022-09-03T23:56:32.204Z,81.03
